sensor_id;sensor_type;location;lat;lon;timestamp;P1;durP1;ratioP1;P2;durP2;ratioP2
60030;SDS011;45901;47.600;9.890;2023-04-24T00:01:24;0.40;;;0.30;;
60030;SDS011;45901;47.600;9.890;2023-04-24T00:03:51;0.83;;;0.33;;
60030;SDS011;45901;47.600;9.890;2023-04-24T00:06:19;2.43;;;0.40;;
60030;SDS011;45901;47.600;9.890;2023-04-24T00:08:50;0.60;;;0.30;;
60030;SDS011;45901;47.600;9.890;2023-04-24T00:11:17;0.87;;;0.40;;
60030;SDS011;45901;47.600;9.890;2023-04-24T00:13:45;2.63;;;0.47;;
60030;SDS011;45901;47.600;9.890;2023-04-24T00:16:12;0.73;;;0.30;;
60030;SDS011;45901;47.600;9.890;2023-04-24T00:18:39;1.27;;;0.30;;
60030;SDS011;45901;47.600;9.890;2023-04-24T00:21:07;0.70;;;0.40;;
60030;SDS011;45901;47.600;9.890;2023-04-24T00:23:34;1.27;;;0.33;;
60030;SDS011;45901;47.600;9.890;2023-04-24T00:26:03;1.33;;;0.40;;
60030;SDS011;45901;47.600;9.890;2023-04-24T00:28:30;0.97;;;0.47;;
60030;SDS011;45901;47.600;9.890;2023-04-24T00:30:57;1.30;;;0.10;;
60030;SDS011;45901;47.600;9.890;2023-04-24T00:33:24;1.80;;;0.40;;
60030;SDS011;45901;47.600;9.890;2023-04-24T00:35:51;1.60;;;0.27;;
60030;SDS011;45901;47.600;9.890;2023-04-24T00:38:19;0.10;;;0.10;;
60030;SDS011;45901;47.600;9.890;2023-04-24T00:40:47;2.10;;;0.30;;
60030;SDS011;45901;47.600;9.890;2023-04-24T00:43:16;0.30;;;0.30;;
60030;SDS011;45901;47.600;9.890;2023-04-24T00:45:43;1.17;;;0.30;;
60030;SDS011;45901;47.600;9.890;2023-04-24T00:48:10;0.20;;;0.20;;
60030;SDS011;45901;47.600;9.890;2023-04-24T00:50:39;0.93;;;0.30;;
60030;SDS011;45901;47.600;9.890;2023-04-24T00:53:08;2.47;;;0.50;;
60030;SDS011;45901;47.600;9.890;2023-04-24T00:55:35;0.90;;;0.20;;
60030;SDS011;45901;47.600;9.890;2023-04-24T00:58:03;0.60;;;0.33;;
60030;SDS011;45901;47.600;9.890;2023-04-24T01:00:32;1.80;;;0.63;;
60030;SDS011;45901;47.600;9.890;2023-04-24T01:03:01;2.23;;;0.40;;
60030;SDS011;45901;47.600;9.890;2023-04-24T01:05:30;0.40;;;0.30;;
60030;SDS011;45901;47.600;9.890;2023-04-24T01:07:59;3.03;;;0.50;;
60030;SDS011;45901;47.600;9.890;2023-04-24T01:10:28;0.40;;;0.20;;
60030;SDS011;45901;47.600;9.890;2023-04-24T01:12:57;0.40;;;0.20;;
60030;SDS011;45901;47.600;9.890;2023-04-24T01:15:25;0.77;;;0.30;;
60030;SDS011;45901;47.600;9.890;2023-04-24T01:17:53;0.10;;;0.10;;
60030;SDS011;45901;47.600;9.890;2023-04-24T01:20:21;1.37;;;0.30;;
60030;SDS011;45901;47.600;9.890;2023-04-24T01:22:51;1.43;;;0.30;;
60030;SDS011;45901;47.600;9.890;2023-04-24T01:25:18;0.20;;;0.20;;
60030;SDS011;45901;47.600;9.890;2023-04-24T01:27:45;1.70;;;0.20;;
60030;SDS011;45901;47.600;9.890;2023-04-24T01:30:13;0.50;;;0.20;;
60030;SDS011;45901;47.600;9.890;2023-04-24T01:32:41;0.20;;;0.20;;
60030;SDS011;45901;47.600;9.890;2023-04-24T01:35:09;0.23;;;0.20;;
60030;SDS011;45901;47.600;9.890;2023-04-24T01:37:37;0.20;;;0.20;;
60030;SDS011;45901;47.600;9.890;2023-04-24T01:40:06;1.60;;;0.23;;
60030;SDS011;45901;47.600;9.890;2023-04-24T01:42:35;0.20;;;0.10;;
60030;SDS011;45901;47.600;9.890;2023-04-24T01:45:03;0.67;;;0.30;;
60030;SDS011;45901;47.600;9.890;2023-04-24T01:47:31;0.60;;;0.10;;
60030;SDS011;45901;47.600;9.890;2023-04-24T01:49:59;0.30;;;0.30;;
60030;SDS011;45901;47.600;9.890;2023-04-24T01:52:26;1.03;;;0.30;;
60030;SDS011;45901;47.600;9.890;2023-04-24T01:54:56;1.37;;;0.77;;
60030;SDS011;45901;47.600;9.890;2023-04-24T01:57:27;0.70;;;0.40;;
60030;SDS011;45901;47.600;9.890;2023-04-24T01:59:55;2.23;;;0.30;;
60030;SDS011;45901;47.600;9.890;2023-04-24T02:02:22;1.73;;;0.33;;
60030;SDS011;45901;47.600;9.890;2023-04-24T02:04:52;0.30;;;0.20;;
60030;SDS011;45901;47.600;9.890;2023-04-24T02:07:19;0.30;;;0.20;;
60030;SDS011;45901;47.600;9.890;2023-04-24T02:09:47;0.27;;;0.20;;
60030;SDS011;45901;47.600;9.890;2023-04-24T02:12:14;0.20;;;0.20;;
60030;SDS011;45901;47.600;9.890;2023-04-24T02:14:43;1.07;;;0.37;;
60030;SDS011;45901;47.600;9.890;2023-04-24T02:17:11;1.20;;;0.40;;
60030;SDS011;45901;47.600;9.890;2023-04-24T02:19:40;3.30;;;0.47;;
60030;SDS011;45901;47.600;9.890;2023-04-24T02:22:07;0.30;;;0.30;;
60030;SDS011;45901;47.600;9.890;2023-04-24T02:24:35;0.33;;;0.30;;
60030;SDS011;45901;47.600;9.890;2023-04-24T02:27:03;0.30;;;0.30;;
60030;SDS011;45901;47.600;9.890;2023-04-24T02:29:30;1.27;;;0.33;;
60030;SDS011;45901;47.600;9.890;2023-04-24T02:31:59;1.73;;;0.37;;
60030;SDS011;45901;47.600;9.890;2023-04-24T02:34:26;1.70;;;0.30;;
60030;SDS011;45901;47.600;9.890;2023-04-24T02:36:53;0.67;;;0.40;;
60030;SDS011;45901;47.600;9.890;2023-04-24T02:39:21;0.30;;;0.20;;
60030;SDS011;45901;47.600;9.890;2023-04-24T02:41:48;1.40;;;0.30;;
60030;SDS011;45901;47.600;9.890;2023-04-24T02:44:15;0.80;;;0.30;;
60030;SDS011;45901;47.600;9.890;2023-04-24T02:46:43;1.63;;;0.30;;
60030;SDS011;45901;47.600;9.890;2023-04-24T02:49:12;3.30;;;0.47;;
60030;SDS011;45901;47.600;9.890;2023-04-24T02:51:39;0.40;;;0.30;;
60030;SDS011;45901;47.600;9.890;2023-04-24T02:54:07;0.30;;;0.30;;
60030;SDS011;45901;47.600;9.890;2023-04-24T02:56:35;2.10;;;0.50;;
60030;SDS011;45901;47.600;9.890;2023-04-24T02:59:02;0.70;;;0.37;;
60030;SDS011;45901;47.600;9.890;2023-04-24T03:01:29;0.30;;;0.30;;
60030;SDS011;45901;47.600;9.890;2023-04-24T03:04:01;0.97;;;0.30;;
60030;SDS011;45901;47.600;9.890;2023-04-24T03:06:30;0.40;;;0.20;;
60030;SDS011;45901;47.600;9.890;2023-04-24T03:08:57;0.53;;;0.30;;
60030;SDS011;45901;47.600;9.890;2023-04-24T03:11:25;1.37;;;0.63;;
60030;SDS011;45901;47.600;9.890;2023-04-24T03:13:52;0.63;;;0.30;;
60030;SDS011;45901;47.600;9.890;2023-04-24T03:16:19;0.33;;;0.30;;
60030;SDS011;45901;47.600;9.890;2023-04-24T03:18:46;1.07;;;0.50;;
60030;SDS011;45901;47.600;9.890;2023-04-24T03:21:13;0.83;;;0.30;;
60030;SDS011;45901;47.600;9.890;2023-04-24T03:23:42;0.50;;;0.30;;
60030;SDS011;45901;47.600;9.890;2023-04-24T03:26:09;0.80;;;0.50;;
60030;SDS011;45901;47.600;9.890;2023-04-24T03:28:36;1.30;;;0.30;;
60030;SDS011;45901;47.600;9.890;2023-04-24T03:31:03;1.60;;;0.47;;
60030;SDS011;45901;47.600;9.890;2023-04-24T03:33:31;0.20;;;0.20;;
60030;SDS011;45901;47.600;9.890;2023-04-24T03:35:58;2.10;;;0.20;;
60030;SDS011;45901;47.600;9.890;2023-04-24T03:38:25;1.43;;;0.60;;
60030;SDS011;45901;47.600;9.890;2023-04-24T03:40:54;1.50;;;0.40;;
60030;SDS011;45901;47.600;9.890;2023-04-24T03:43:21;0.57;;;0.40;;
60030;SDS011;45901;47.600;9.890;2023-04-24T03:45:48;1.77;;;0.73;;
60030;SDS011;45901;47.600;9.890;2023-04-24T03:48:15;0.70;;;0.57;;
60030;SDS011;45901;47.600;9.890;2023-04-24T03:50:43;1.03;;;0.40;;
60030;SDS011;45901;47.600;9.890;2023-04-24T03:53:10;0.90;;;0.47;;
60030;SDS011;45901;47.600;9.890;2023-04-24T03:55:37;1.23;;;0.50;;
60030;SDS011;45901;47.600;9.890;2023-04-24T03:58:06;0.50;;;0.40;;
60030;SDS011;45901;47.600;9.890;2023-04-24T04:00:33;0.87;;;0.50;;
60030;SDS011;45901;47.600;9.890;2023-04-24T04:03:02;0.50;;;0.40;;
60030;SDS011;45901;47.600;9.890;2023-04-24T04:05:30;0.60;;;0.40;;
60030;SDS011;45901;47.600;9.890;2023-04-24T04:07:57;1.30;;;0.63;;
60030;SDS011;45901;47.600;9.890;2023-04-24T04:10:24;0.47;;;0.43;;
60030;SDS011;45901;47.600;9.890;2023-04-24T04:12:51;1.00;;;0.40;;
60030;SDS011;45901;47.600;9.890;2023-04-24T04:15:20;0.83;;;0.57;;
60030;SDS011;45901;47.600;9.890;2023-04-24T04:17:47;0.63;;;0.33;;
60030;SDS011;45901;47.600;9.890;2023-04-24T04:20:14;0.70;;;0.40;;
60030;SDS011;45901;47.600;9.890;2023-04-24T04:22:41;1.53;;;0.50;;
60030;SDS011;45901;47.600;9.890;2023-04-24T04:25:09;1.10;;;0.50;;
60030;SDS011;45901;47.600;9.890;2023-04-24T04:27:38;0.50;;;0.47;;
60030;SDS011;45901;47.600;9.890;2023-04-24T04:30:07;1.30;;;0.37;;
60030;SDS011;45901;47.600;9.890;2023-04-24T04:32:36;0.30;;;0.30;;
60030;SDS011;45901;47.600;9.890;2023-04-24T04:35:04;0.40;;;0.40;;
60030;SDS011;45901;47.600;9.890;2023-04-24T04:37:32;0.73;;;0.40;;
60030;SDS011;45901;47.600;9.890;2023-04-24T04:40:00;2.13;;;0.57;;
60030;SDS011;45901;47.600;9.890;2023-04-24T04:42:31;1.53;;;0.60;;
60030;SDS011;45901;47.600;9.890;2023-04-24T04:44:59;1.10;;;0.40;;
60030;SDS011;45901;47.600;9.890;2023-04-24T04:47:27;0.83;;;0.60;;
60030;SDS011;45901;47.600;9.890;2023-04-24T04:49:58;1.27;;;0.60;;
60030;SDS011;45901;47.600;9.890;2023-04-24T04:52:25;0.60;;;0.50;;
60030;SDS011;45901;47.600;9.890;2023-04-24T04:54:52;2.53;;;0.50;;
60030;SDS011;45901;47.600;9.890;2023-04-24T04:57:19;0.87;;;0.50;;
60030;SDS011;45901;47.600;9.890;2023-04-24T04:59:47;1.20;;;0.63;;
60030;SDS011;45901;47.600;9.890;2023-04-24T05:02:14;1.23;;;0.67;;
60030;SDS011;45901;47.600;9.890;2023-04-24T05:04:42;1.47;;;0.70;;
60030;SDS011;45901;47.600;9.890;2023-04-24T05:07:11;1.23;;;0.80;;
60030;SDS011;45901;47.600;9.890;2023-04-24T05:09:38;2.27;;;0.80;;
60030;SDS011;45901;47.600;9.890;2023-04-24T05:12:05;4.70;;;1.13;;
60030;SDS011;45901;47.600;9.890;2023-04-24T05:14:33;5.17;;;1.07;;
60030;SDS011;45901;47.600;9.890;2023-04-24T05:17:00;2.77;;;1.13;;
60030;SDS011;45901;47.600;9.890;2023-04-24T05:19:27;3.73;;;1.60;;
60030;SDS011;45901;47.600;9.890;2023-04-24T05:21:55;2.87;;;1.37;;
60030;SDS011;45901;47.600;9.890;2023-04-24T05:24:23;3.47;;;1.47;;
60030;SDS011;45901;47.600;9.890;2023-04-24T05:26:51;2.63;;;1.30;;
60030;SDS011;45901;47.600;9.890;2023-04-24T05:29:18;4.23;;;1.77;;
60030;SDS011;45901;47.600;9.890;2023-04-24T05:31:46;3.97;;;1.63;;
60030;SDS011;45901;47.600;9.890;2023-04-24T05:34:13;4.27;;;1.50;;
60030;SDS011;45901;47.600;9.890;2023-04-24T05:36:41;3.30;;;1.40;;
60030;SDS011;45901;47.600;9.890;2023-04-24T05:39:09;3.67;;;1.33;;
60030;SDS011;45901;47.600;9.890;2023-04-24T05:41:38;2.67;;;1.00;;
60030;SDS011;45901;47.600;9.890;2023-04-24T05:44:05;2.20;;;0.80;;
60030;SDS011;45901;47.600;9.890;2023-04-24T05:46:32;2.30;;;0.50;;
60030;SDS011;45901;47.600;9.890;2023-04-24T05:48:59;2.03;;;0.43;;
60030;SDS011;45901;47.600;9.890;2023-04-24T05:51:27;1.17;;;0.60;;
60030;SDS011;45901;47.600;9.890;2023-04-24T05:53:54;1.50;;;0.70;;
60030;SDS011;45901;47.600;9.890;2023-04-24T05:56:22;1.00;;;0.70;;
60030;SDS011;45901;47.600;9.890;2023-04-24T05:58:51;1.33;;;0.53;;
60030;SDS011;45901;47.600;9.890;2023-04-24T06:01:19;1.83;;;1.33;;
60030;SDS011;45901;47.600;9.890;2023-04-24T06:03:46;1.90;;;1.07;;
60030;SDS011;45901;47.600;9.890;2023-04-24T06:06:13;2.07;;;1.13;;
60030;SDS011;45901;47.600;9.890;2023-04-24T06:08:41;0.60;;;0.60;;
60030;SDS011;45901;47.600;9.890;2023-04-24T06:11:09;0.90;;;0.50;;
60030;SDS011;45901;47.600;9.890;2023-04-24T06:13:36;3.03;;;1.07;;
60030;SDS011;45901;47.600;9.890;2023-04-24T06:16:05;2.50;;;0.90;;
60030;SDS011;45901;47.600;9.890;2023-04-24T06:18:32;1.20;;;0.57;;
60030;SDS011;45901;47.600;9.890;2023-04-24T06:20:59;0.73;;;0.30;;
60030;SDS011;45901;47.600;9.890;2023-04-24T06:23:26;0.70;;;0.30;;
60030;SDS011;45901;47.600;9.890;2023-04-24T06:25:54;0.67;;;0.27;;
60030;SDS011;45901;47.600;9.890;2023-04-24T06:28:21;1.43;;;0.20;;
60030;SDS011;45901;47.600;9.890;2023-04-24T06:30:48;0.10;;;0.10;;
60030;SDS011;45901;47.600;9.890;2023-04-24T06:33:17;0.47;;;0.30;;
60030;SDS011;45901;47.600;9.890;2023-04-24T06:35:44;1.90;;;0.40;;
60030;SDS011;45901;47.600;9.890;2023-04-24T06:38:11;2.30;;;0.50;;
60030;SDS011;45901;47.600;9.890;2023-04-24T06:40:38;0.80;;;0.63;;
60030;SDS011;45901;47.600;9.890;2023-04-24T06:43:06;1.27;;;0.60;;
60030;SDS011;45901;47.600;9.890;2023-04-24T06:45:33;0.70;;;0.30;;
60030;SDS011;45901;47.600;9.890;2023-04-24T06:48:00;1.00;;;0.57;;
60030;SDS011;45901;47.600;9.890;2023-04-24T06:50:29;0.40;;;0.37;;
60030;SDS011;45901;47.600;9.890;2023-04-24T06:52:56;2.10;;;0.40;;
60030;SDS011;45901;47.600;9.890;2023-04-24T06:55:23;1.20;;;0.63;;
60030;SDS011;45901;47.600;9.890;2023-04-24T06:57:50;1.73;;;0.70;;
60030;SDS011;45901;47.600;9.890;2023-04-24T07:00:18;1.07;;;0.47;;
60030;SDS011;45901;47.600;9.890;2023-04-24T07:02:45;0.57;;;0.50;;
60030;SDS011;45901;47.600;9.890;2023-04-24T07:05:13;2.83;;;0.70;;
60030;SDS011;45901;47.600;9.890;2023-04-24T07:07:42;2.83;;;0.80;;
60030;SDS011;45901;47.600;9.890;2023-04-24T07:10:10;1.57;;;0.80;;
60030;SDS011;45901;47.600;9.890;2023-04-24T07:12:38;1.20;;;0.70;;
60030;SDS011;45901;47.600;9.890;2023-04-24T07:15:06;1.60;;;0.70;;
60030;SDS011;45901;47.600;9.890;2023-04-24T07:17:34;1.40;;;0.80;;
60030;SDS011;45901;47.600;9.890;2023-04-24T07:20:03;2.33;;;1.10;;
60030;SDS011;45901;47.600;9.890;2023-04-24T07:22:34;2.20;;;1.10;;
60030;SDS011;45901;47.600;9.890;2023-04-24T07:25:03;3.97;;;1.00;;
60030;SDS011;45901;47.600;9.890;2023-04-24T07:27:31;2.50;;;1.10;;
60030;SDS011;45901;47.600;9.890;2023-04-24T07:29:58;2.50;;;1.30;;
60030;SDS011;45901;47.600;9.890;2023-04-24T07:32:25;2.47;;;1.40;;
60030;SDS011;45901;47.600;9.890;2023-04-24T07:34:52;2.50;;;1.30;;
60030;SDS011;45901;47.600;9.890;2023-04-24T07:37:20;3.47;;;1.67;;
60030;SDS011;45901;47.600;9.890;2023-04-24T07:39:47;3.53;;;1.40;;
60030;SDS011;45901;47.600;9.890;2023-04-24T07:42:16;2.63;;;1.67;;
60030;SDS011;45901;47.600;9.890;2023-04-24T07:44:43;1.93;;;1.40;;
60030;SDS011;45901;47.600;9.890;2023-04-24T07:47:11;3.60;;;1.60;;
60030;SDS011;45901;47.600;9.890;2023-04-24T07:49:40;4.00;;;1.73;;
60030;SDS011;45901;47.600;9.890;2023-04-24T07:52:08;4.33;;;1.80;;
60030;SDS011;45901;47.600;9.890;2023-04-24T07:54:35;3.03;;;1.83;;
60030;SDS011;45901;47.600;9.890;2023-04-24T07:57:03;2.77;;;1.97;;
60030;SDS011;45901;47.600;9.890;2023-04-24T07:59:33;2.33;;;1.70;;
60030;SDS011;45901;47.600;9.890;2023-04-24T08:02:00;3.60;;;2.30;;
60030;SDS011;45901;47.600;9.890;2023-04-24T08:04:27;2.50;;;1.63;;
60030;SDS011;45901;47.600;9.890;2023-04-24T08:06:54;2.87;;;2.00;;
60030;SDS011;45901;47.600;9.890;2023-04-24T08:09:22;2.50;;;1.60;;
60030;SDS011;45901;47.600;9.890;2023-04-24T08:11:50;4.53;;;1.77;;
60030;SDS011;45901;47.600;9.890;2023-04-24T08:14:18;2.90;;;1.87;;
60030;SDS011;45901;47.600;9.890;2023-04-24T08:16:46;5.47;;;2.03;;
60030;SDS011;45901;47.600;9.890;2023-04-24T08:19:13;3.27;;;1.90;;
60030;SDS011;45901;47.600;9.890;2023-04-24T08:21:41;3.73;;;1.93;;
60030;SDS011;45901;47.600;9.890;2023-04-24T08:24:08;2.53;;;1.90;;
60030;SDS011;45901;47.600;9.890;2023-04-24T08:26:35;2.10;;;1.60;;
60030;SDS011;45901;47.600;9.890;2023-04-24T08:29:03;2.43;;;1.60;;
60030;SDS011;45901;47.600;9.890;2023-04-24T08:31:31;3.57;;;1.67;;
60030;SDS011;45901;47.600;9.890;2023-04-24T08:34:00;2.60;;;2.00;;
60030;SDS011;45901;47.600;9.890;2023-04-24T08:36:27;3.00;;;1.77;;
60030;SDS011;45901;47.600;9.890;2023-04-24T08:38:55;7.03;;;1.80;;
60030;SDS011;45901;47.600;9.890;2023-04-24T08:41:22;1.80;;;1.30;;
60030;SDS011;45901;47.600;9.890;2023-04-24T08:43:51;2.63;;;1.03;;
60030;SDS011;45901;47.600;9.890;2023-04-24T08:46:20;4.47;;;1.40;;
60030;SDS011;45901;47.600;9.890;2023-04-24T08:48:48;3.33;;;1.13;;
60030;SDS011;45901;47.600;9.890;2023-04-24T08:51:18;2.63;;;1.17;;
60030;SDS011;45901;47.600;9.890;2023-04-24T08:53:45;2.30;;;1.57;;
60030;SDS011;45901;47.600;9.890;2023-04-24T08:56:13;2.10;;;0.80;;
60030;SDS011;45901;47.600;9.890;2023-04-24T08:58:41;2.20;;;0.70;;
60030;SDS011;45901;47.600;9.890;2023-04-24T09:01:10;2.90;;;1.10;;
60030;SDS011;45901;47.600;9.890;2023-04-24T09:03:38;2.30;;;0.87;;
60030;SDS011;45901;47.600;9.890;2023-04-24T09:06:06;0.93;;;0.70;;
60030;SDS011;45901;47.600;9.890;2023-04-24T09:08:36;2.30;;;1.10;;
60030;SDS011;45901;47.600;9.890;2023-04-24T09:11:07;2.70;;;0.70;;
60030;SDS011;45901;47.600;9.890;2023-04-24T09:13:35;1.30;;;0.87;;
60030;SDS011;45901;47.600;9.890;2023-04-24T09:16:03;2.87;;;0.97;;
60030;SDS011;45901;47.600;9.890;2023-04-24T09:18:31;1.30;;;0.70;;
60030;SDS011;45901;47.600;9.890;2023-04-24T09:21:00;1.43;;;0.97;;
60030;SDS011;45901;47.600;9.890;2023-04-24T09:23:29;2.03;;;0.90;;
60030;SDS011;45901;47.600;9.890;2023-04-24T09:25:59;1.80;;;0.80;;
60030;SDS011;45901;47.600;9.890;2023-04-24T09:28:30;4.40;;;1.13;;
60030;SDS011;45901;47.600;9.890;2023-04-24T09:31:05;2.33;;;1.00;;
60030;SDS011;45901;47.600;9.890;2023-04-24T09:33:35;2.93;;;1.40;;
60030;SDS011;45901;47.600;9.890;2023-04-24T09:36:02;3.57;;;1.63;;
60030;SDS011;45901;47.600;9.890;2023-04-24T09:38:31;3.27;;;1.50;;
60030;SDS011;45901;47.600;9.890;2023-04-24T09:41:03;2.50;;;1.47;;
60030;SDS011;45901;47.600;9.890;2023-04-24T09:43:33;3.50;;;1.20;;
60030;SDS011;45901;47.600;9.890;2023-04-24T09:46:04;2.77;;;1.57;;
60030;SDS011;45901;47.600;9.890;2023-04-24T09:48:34;4.87;;;1.87;;
60030;SDS011;45901;47.600;9.890;2023-04-24T09:51:04;2.73;;;1.73;;
60030;SDS011;45901;47.600;9.890;2023-04-24T09:53:35;3.00;;;1.77;;
60030;SDS011;45901;47.600;9.890;2023-04-24T09:56:08;4.33;;;1.90;;
60030;SDS011;45901;47.600;9.890;2023-04-24T09:58:37;4.67;;;2.03;;
60030;SDS011;45901;47.600;9.890;2023-04-24T10:01:04;7.63;;;3.23;;
60030;SDS011;45901;47.600;9.890;2023-04-24T10:03:32;4.93;;;2.40;;
60030;SDS011;45901;47.600;9.890;2023-04-24T10:06:00;7.87;;;2.60;;
60030;SDS011;45901;47.600;9.890;2023-04-24T10:08:33;8.70;;;2.67;;
60030;SDS011;45901;47.600;9.890;2023-04-24T10:11:01;5.37;;;2.27;;
60030;SDS011;45901;47.600;9.890;2023-04-24T10:13:30;6.37;;;2.60;;
60030;SDS011;45901;47.600;9.890;2023-04-24T10:15:58;7.90;;;3.00;;
60030;SDS011;45901;47.600;9.890;2023-04-24T10:18:28;5.07;;;3.53;;
60030;SDS011;45901;47.600;9.890;2023-04-24T10:20:56;9.23;;;2.77;;
60030;SDS011;45901;47.600;9.890;2023-04-24T10:23:23;5.30;;;2.80;;
60030;SDS011;45901;47.600;9.890;2023-04-24T10:25:52;5.60;;;2.50;;
60030;SDS011;45901;47.600;9.890;2023-04-24T10:28:19;2.83;;;2.10;;
60030;SDS011;45901;47.600;9.890;2023-04-24T10:30:49;5.57;;;2.60;;
60030;SDS011;45901;47.600;9.890;2023-04-24T10:33:21;7.37;;;2.23;;
60030;SDS011;45901;47.600;9.890;2023-04-24T10:35:50;3.33;;;2.27;;
60030;SDS011;45901;47.600;9.890;2023-04-24T10:38:21;5.00;;;2.30;;
60030;SDS011;45901;47.600;9.890;2023-04-24T10:40:56;4.07;;;2.20;;
60030;SDS011;45901;47.600;9.890;2023-04-24T10:43:33;5.10;;;2.97;;
60030;SDS011;45901;47.600;9.890;2023-04-24T10:46:02;4.50;;;2.80;;
60030;SDS011;45901;47.600;9.890;2023-04-24T10:48:31;3.37;;;2.13;;
60030;SDS011;45901;47.600;9.890;2023-04-24T10:51:00;4.90;;;2.07;;
60030;SDS011;45901;47.600;9.890;2023-04-24T10:53:28;4.80;;;2.73;;
60030;SDS011;45901;47.600;9.890;2023-04-24T10:55:57;5.47;;;3.20;;
60030;SDS011;45901;47.600;9.890;2023-04-24T10:58:36;5.23;;;3.60;;
60030;SDS011;45901;47.600;9.890;2023-04-24T11:01:06;4.90;;;2.40;;
60030;SDS011;45901;47.600;9.890;2023-04-24T11:03:34;4.33;;;2.40;;
60030;SDS011;45901;47.600;9.890;2023-04-24T11:06:03;8.30;;;2.50;;
60030;SDS011;45901;47.600;9.890;2023-04-24T11:08:37;5.00;;;2.70;;
60030;SDS011;45901;47.600;9.890;2023-04-24T11:11:09;6.93;;;2.70;;
60030;SDS011;45901;47.600;9.890;2023-04-24T11:16:39;4.57;;;2.50;;
60030;SDS011;45901;47.600;9.890;2023-04-24T11:19:17;6.30;;;2.30;;
60030;SDS011;45901;47.600;9.890;2023-04-24T11:21:54;5.77;;;2.60;;
60030;SDS011;45901;47.600;9.890;2023-04-24T11:24:25;6.13;;;2.90;;
60030;SDS011;45901;47.600;9.890;2023-04-24T11:26:56;6.10;;;2.90;;
60030;SDS011;45901;47.600;9.890;2023-04-24T11:29:43;6.13;;;3.17;;
60030;SDS011;45901;47.600;9.890;2023-04-24T11:32:23;5.53;;;2.83;;
60030;SDS011;45901;47.600;9.890;2023-04-24T11:34:53;4.97;;;2.67;;
60030;SDS011;45901;47.600;9.890;2023-04-24T11:37:22;5.37;;;3.30;;
60030;SDS011;45901;47.600;9.890;2023-04-24T11:39:51;5.47;;;2.90;;
60030;SDS011;45901;47.600;9.890;2023-04-24T11:42:20;8.00;;;4.27;;
60030;SDS011;45901;47.600;9.890;2023-04-24T11:44:51;5.20;;;3.17;;
60030;SDS011;45901;47.600;9.890;2023-04-24T11:47:21;5.77;;;2.73;;
60030;SDS011;45901;47.600;9.890;2023-04-24T11:49:55;5.00;;;2.87;;
60030;SDS011;45901;47.600;9.890;2023-04-24T11:52:22;3.40;;;2.33;;
60030;SDS011;45901;47.600;9.890;2023-04-24T11:54:50;8.43;;;3.60;;
60030;SDS011;45901;47.600;9.890;2023-04-24T11:57:18;3.73;;;2.23;;
60030;SDS011;45901;47.600;9.890;2023-04-24T11:59:47;4.20;;;2.10;;
60030;SDS011;45901;47.600;9.890;2023-04-24T12:02:22;6.67;;;2.40;;
60030;SDS011;45901;47.600;9.890;2023-04-24T12:04:51;3.13;;;1.80;;
60030;SDS011;45901;47.600;9.890;2023-04-24T12:07:18;3.67;;;1.67;;
60030;SDS011;45901;47.600;9.890;2023-04-24T12:09:47;2.37;;;1.57;;
60030;SDS011;45901;47.600;9.890;2023-04-24T12:12:24;3.43;;;1.87;;
60030;SDS011;45901;47.600;9.890;2023-04-24T12:14:54;2.43;;;1.63;;
60030;SDS011;45901;47.600;9.890;2023-04-24T12:17:27;1.90;;;1.30;;
60030;SDS011;45901;47.600;9.890;2023-04-24T12:19:57;2.57;;;1.90;;
60030;SDS011;45901;47.600;9.890;2023-04-24T12:22:26;3.57;;;1.60;;
60030;SDS011;45901;47.600;9.890;2023-04-24T12:24:58;5.30;;;1.90;;
60030;SDS011;45901;47.600;9.890;2023-04-24T12:27:29;3.43;;;1.70;;
60030;SDS011;45901;47.600;9.890;2023-04-24T12:29:58;2.17;;;1.70;;
60030;SDS011;45901;47.600;9.890;2023-04-24T12:32:29;2.63;;;1.60;;
60030;SDS011;45901;47.600;9.890;2023-04-24T12:34:56;8.70;;;2.17;;
60030;SDS011;45901;47.600;9.890;2023-04-24T12:37:25;5.10;;;2.17;;
60030;SDS011;45901;47.600;9.890;2023-04-24T12:39:59;3.40;;;1.70;;
60030;SDS011;45901;47.600;9.890;2023-04-24T12:42:31;4.57;;;2.20;;
60030;SDS011;45901;47.600;9.890;2023-04-24T12:44:59;3.27;;;1.63;;
60030;SDS011;45901;47.600;9.890;2023-04-24T12:47:31;6.83;;;2.03;;
60030;SDS011;45901;47.600;9.890;2023-04-24T12:49:59;1.90;;;1.30;;
60030;SDS011;45901;47.600;9.890;2023-04-24T12:52:27;4.77;;;1.60;;
60030;SDS011;45901;47.600;9.890;2023-04-24T12:54:56;4.87;;;1.80;;
60030;SDS011;45901;47.600;9.890;2023-04-24T12:57:26;3.77;;;1.80;;
60030;SDS011;45901;47.600;9.890;2023-04-24T12:59:55;3.93;;;1.67;;
60030;SDS011;45901;47.600;9.890;2023-04-24T13:02:24;3.87;;;1.40;;
60030;SDS011;45901;47.600;9.890;2023-04-24T13:04:55;2.33;;;1.57;;
60030;SDS011;45901;47.600;9.890;2023-04-24T13:07:23;4.87;;;1.70;;
60030;SDS011;45901;47.600;9.890;2023-04-24T13:09:51;4.63;;;1.70;;
60030;SDS011;45901;47.600;9.890;2023-04-24T13:12:20;3.53;;;1.50;;
60030;SDS011;45901;47.600;9.890;2023-04-24T13:14:48;3.73;;;1.70;;
60030;SDS011;45901;47.600;9.890;2023-04-24T13:17:16;4.27;;;1.57;;
60030;SDS011;45901;47.600;9.890;2023-04-24T13:19:43;4.03;;;1.60;;
60030;SDS011;45901;47.600;9.890;2023-04-24T13:22:13;2.90;;;1.53;;
60030;SDS011;45901;47.600;9.890;2023-04-24T13:24:40;3.63;;;1.30;;
60030;SDS011;45901;47.600;9.890;2023-04-24T13:27:08;3.80;;;1.50;;
60030;SDS011;45901;47.600;9.890;2023-04-24T13:29:35;3.47;;;1.50;;
60030;SDS011;45901;47.600;9.890;2023-04-24T13:32:03;2.97;;;1.30;;
60030;SDS011;45901;47.600;9.890;2023-04-24T13:34:30;2.03;;;1.20;;
60030;SDS011;45901;47.600;9.890;2023-04-24T13:36:57;2.83;;;1.30;;
60030;SDS011;45901;47.600;9.890;2023-04-24T13:39:26;4.50;;;1.70;;
60030;SDS011;45901;47.600;9.890;2023-04-24T13:41:53;2.73;;;1.23;;
60030;SDS011;45901;47.600;9.890;2023-04-24T13:44:21;6.47;;;1.40;;
60030;SDS011;45901;47.600;9.890;2023-04-24T13:46:50;5.47;;;1.33;;
60030;SDS011;45901;47.600;9.890;2023-04-24T13:49:22;2.27;;;1.50;;
60030;SDS011;45901;47.600;9.890;2023-04-24T13:51:50;3.97;;;1.47;;
60030;SDS011;45901;47.600;9.890;2023-04-24T13:54:19;3.30;;;1.30;;
60030;SDS011;45901;47.600;9.890;2023-04-24T13:56:48;2.87;;;1.33;;
60030;SDS011;45901;47.600;9.890;2023-04-24T13:59:16;4.03;;;1.20;;
60030;SDS011;45901;47.600;9.890;2023-04-24T14:01:43;2.60;;;1.30;;
60030;SDS011;45901;47.600;9.890;2023-04-24T14:04:11;1.80;;;1.17;;
60030;SDS011;45901;47.600;9.890;2023-04-24T14:06:38;3.00;;;1.50;;
60030;SDS011;45901;47.600;9.890;2023-04-24T14:09:05;2.47;;;1.20;;
60030;SDS011;45901;47.600;9.890;2023-04-24T14:11:33;5.43;;;1.43;;
60030;SDS011;45901;47.600;9.890;2023-04-24T14:14:02;2.47;;;1.30;;
60030;SDS011;45901;47.600;9.890;2023-04-24T14:16:29;4.30;;;1.00;;
60030;SDS011;45901;47.600;9.890;2023-04-24T14:18:57;2.63;;;1.60;;
60030;SDS011;45901;47.600;9.890;2023-04-24T14:21:24;4.07;;;1.57;;
60030;SDS011;45901;47.600;9.890;2023-04-24T14:23:51;6.00;;;1.40;;
60030;SDS011;45901;47.600;9.890;2023-04-24T14:26:19;2.63;;;1.40;;
60030;SDS011;45901;47.600;9.890;2023-04-24T14:28:46;3.67;;;1.40;;
60030;SDS011;45901;47.600;9.890;2023-04-24T14:31:15;2.53;;;1.20;;
60030;SDS011;45901;47.600;9.890;2023-04-24T14:33:43;5.00;;;1.47;;
60030;SDS011;45901;47.600;9.890;2023-04-24T14:36:10;3.73;;;1.50;;
60030;SDS011;45901;47.600;9.890;2023-04-24T14:38:38;4.07;;;1.33;;
60030;SDS011;45901;47.600;9.890;2023-04-24T14:41:05;2.87;;;1.40;;
60030;SDS011;45901;47.600;9.890;2023-04-24T14:43:34;2.30;;;1.23;;
60030;SDS011;45901;47.600;9.890;2023-04-24T14:46:01;3.43;;;1.60;;
60030;SDS011;45901;47.600;9.890;2023-04-24T14:48:30;2.20;;;1.30;;
60030;SDS011;45901;47.600;9.890;2023-04-24T14:50:58;1.97;;;1.20;;
60030;SDS011;45901;47.600;9.890;2023-04-24T14:53:25;6.63;;;1.10;;
60030;SDS011;45901;47.600;9.890;2023-04-24T14:55:53;3.03;;;1.60;;
60030;SDS011;45901;47.600;9.890;2023-04-24T14:58:20;5.00;;;1.23;;